sensor_id;sensor_type;location;lat;lon;timestamp;P1;durP1;ratioP1;P2;durP2;ratioP2
15841;SDS011;8021;48.022;11.812;2023-05-25T00:01:23;0.30;;;0.30;;
15841;SDS011;8021;48.022;11.812;2023-05-25T00:03:51;0.30;;;0.28;;
15841;SDS011;8021;48.022;11.812;2023-05-25T00:06:20;0.30;;;0.20;;
15841;SDS011;8021;48.022;11.812;2023-05-25T00:08:49;0.30;;;0.30;;
15841;SDS011;8021;48.022;11.812;2023-05-25T00:11:20;0.30;;;0.30;;
15841;SDS011;8021;48.022;11.812;2023-05-25T00:13:48;0.30;;;0.30;;
15841;SDS011;8021;48.022;11.812;2023-05-25T00:16:16;0.30;;;0.30;;
15841;SDS011;8021;48.022;11.812;2023-05-25T00:18:43;0.30;;;0.22;;
15841;SDS011;8021;48.022;11.812;2023-05-25T00:21:13;0.30;;;0.30;;
15841;SDS011;8021;48.022;11.812;2023-05-25T00:23:41;0.30;;;0.30;;
15841;SDS011;8021;48.022;11.812;2023-05-25T00:26:10;0.30;;;0.30;;
15841;SDS011;8021;48.022;11.812;2023-05-25T00:28:38;0.30;;;0.30;;
15841;SDS011;8021;48.022;11.812;2023-05-25T00:31:05;0.30;;;0.30;;
15841;SDS011;8021;48.022;11.812;2023-05-25T00:33:33;0.30;;;0.30;;
15841;SDS011;8021;48.022;11.812;2023-05-25T00:36:01;0.30;;;0.30;;
15841;SDS011;8021;48.022;11.812;2023-05-25T00:38:28;0.30;;;0.30;;
15841;SDS011;8021;48.022;11.812;2023-05-25T00:40:56;0.30;;;0.30;;
15841;SDS011;8021;48.022;11.812;2023-05-25T00:43:25;0.30;;;0.30;;
15841;SDS011;8021;48.022;11.812;2023-05-25T00:45:52;0.30;;;0.30;;
15841;SDS011;8021;48.022;11.812;2023-05-25T00:48:20;0.30;;;0.30;;
15841;SDS011;8021;48.022;11.812;2023-05-25T00:50:48;0.30;;;0.30;;
15841;SDS011;8021;48.022;11.812;2023-05-25T00:53:20;0.35;;;0.35;;
15841;SDS011;8021;48.022;11.812;2023-05-25T00:55:48;0.40;;;0.40;;
15841;SDS011;8021;48.022;11.812;2023-05-25T00:58:16;0.30;;;0.30;;
15841;SDS011;8021;48.022;11.812;2023-05-25T01:00:48;0.30;;;0.30;;
15841;SDS011;8021;48.022;11.812;2023-05-25T01:03:17;0.30;;;0.30;;
15841;SDS011;8021;48.022;11.812;2023-05-25T01:05:48;0.30;;;0.30;;
15841;SDS011;8021;48.022;11.812;2023-05-25T01:08:18;0.30;;;0.30;;
15841;SDS011;8021;48.022;11.812;2023-05-25T01:10:47;0.50;;;0.50;;
15841;SDS011;8021;48.022;11.812;2023-05-25T01:13:15;0.30;;;0.30;;
15841;SDS011;8021;48.022;11.812;2023-05-25T01:15:43;0.30;;;0.28;;
15841;SDS011;8021;48.022;11.812;2023-05-25T01:18:13;0.30;;;0.30;;
15841;SDS011;8021;48.022;11.812;2023-05-25T01:20:53;0.20;;;0.20;;
15841;SDS011;8021;48.022;11.812;2023-05-25T01:23:23;0.30;;;0.30;;
15841;SDS011;8021;48.022;11.812;2023-05-25T01:25:54;0.38;;;0.38;;
15841;SDS011;8021;48.022;11.812;2023-05-25T01:28:24;0.40;;;0.40;;
15841;SDS011;8021;48.022;11.812;2023-05-25T01:30:54;0.40;;;0.40;;
15841;SDS011;8021;48.022;11.812;2023-05-25T01:33:22;0.30;;;0.30;;
15841;SDS011;8021;48.022;11.812;2023-05-25T01:35:52;0.30;;;0.30;;
15841;SDS011;8021;48.022;11.812;2023-05-25T01:38:20;0.40;;;0.40;;
15841;SDS011;8021;48.022;11.812;2023-05-25T01:40:48;0.30;;;0.30;;
15841;SDS011;8021;48.022;11.812;2023-05-25T01:43:16;0.30;;;0.30;;
15841;SDS011;8021;48.022;11.812;2023-05-25T01:45:43;0.30;;;0.30;;
15841;SDS011;8021;48.022;11.812;2023-05-25T01:48:14;0.30;;;0.30;;
15841;SDS011;8021;48.022;11.812;2023-05-25T01:50:47;0.40;;;0.40;;
15841;SDS011;8021;48.022;11.812;2023-05-25T01:53:18;0.30;;;0.30;;
15841;SDS011;8021;48.022;11.812;2023-05-25T01:55:48;0.40;;;0.40;;
15841;SDS011;8021;48.022;11.812;2023-05-25T01:58:17;0.30;;;0.30;;
15841;SDS011;8021;48.022;11.812;2023-05-25T02:00:45;0.40;;;0.40;;
15841;SDS011;8021;48.022;11.812;2023-05-25T02:03:14;0.32;;;0.32;;
15841;SDS011;8021;48.022;11.812;2023-05-25T02:05:41;0.30;;;0.30;;
15841;SDS011;8021;48.022;11.812;2023-05-25T02:08:10;0.40;;;0.40;;
15841;SDS011;8021;48.022;11.812;2023-05-25T02:10:39;0.40;;;0.40;;
15841;SDS011;8021;48.022;11.812;2023-05-25T02:13:06;0.30;;;0.30;;
15841;SDS011;8021;48.022;11.812;2023-05-25T02:15:34;0.40;;;0.40;;
15841;SDS011;8021;48.022;11.812;2023-05-25T02:18:01;0.30;;;0.30;;
15841;SDS011;8021;48.022;11.812;2023-05-25T02:20:31;0.30;;;0.30;;
15841;SDS011;8021;48.022;11.812;2023-05-25T02:22:58;0.30;;;0.30;;
15841;SDS011;8021;48.022;11.812;2023-05-25T02:25:26;0.40;;;0.40;;
15841;SDS011;8021;48.022;11.812;2023-05-25T02:27:55;0.30;;;0.30;;
15841;SDS011;8021;48.022;11.812;2023-05-25T02:30:22;0.40;;;0.40;;
15841;SDS011;8021;48.022;11.812;2023-05-25T02:32:52;0.40;;;0.40;;
15841;SDS011;8021;48.022;11.812;2023-05-25T02:35:20;0.40;;;0.40;;
15841;SDS011;8021;48.022;11.812;2023-05-25T02:37:48;0.40;;;0.40;;
15841;SDS011;8021;48.022;11.812;2023-05-25T02:40:16;0.30;;;0.28;;
15841;SDS011;8021;48.022;11.812;2023-05-25T02:42:45;0.40;;;0.40;;
15841;SDS011;8021;48.022;11.812;2023-05-25T02:45:14;0.30;;;0.30;;
15841;SDS011;8021;48.022;11.812;2023-05-25T02:47:42;0.30;;;0.30;;
15841;SDS011;8021;48.022;11.812;2023-05-25T02:50:11;0.30;;;0.30;;
15841;SDS011;8021;48.022;11.812;2023-05-25T02:52:43;0.30;;;0.30;;
15841;SDS011;8021;48.022;11.812;2023-05-25T02:55:10;0.30;;;0.30;;
15841;SDS011;8021;48.022;11.812;2023-05-25T02:57:39;0.32;;;0.32;;
15841;SDS011;8021;48.022;11.812;2023-05-25T03:00:09;0.40;;;0.40;;
15841;SDS011;8021;48.022;11.812;2023-05-25T03:02:39;0.47;;;0.47;;
15841;SDS011;8021;48.022;11.812;2023-05-25T03:05:07;0.30;;;0.30;;
15841;SDS011;8021;48.022;11.812;2023-05-25T03:07:35;0.30;;;0.30;;
15841;SDS011;8021;48.022;11.812;2023-05-25T03:10:03;0.40;;;0.40;;
15841;SDS011;8021;48.022;11.812;2023-05-25T03:12:31;0.40;;;0.40;;
15841;SDS011;8021;48.022;11.812;2023-05-25T03:14:58;0.30;;;0.30;;
15841;SDS011;8021;48.022;11.812;2023-05-25T03:17:26;0.30;;;0.30;;
15841;SDS011;8021;48.022;11.812;2023-05-25T03:19:55;0.40;;;0.40;;
15841;SDS011;8021;48.022;11.812;2023-05-25T03:22:24;0.40;;;0.40;;
15841;SDS011;8021;48.022;11.812;2023-05-25T03:24:52;0.30;;;0.30;;
15841;SDS011;8021;48.022;11.812;2023-05-25T03:27:19;0.30;;;0.30;;
15841;SDS011;8021;48.022;11.812;2023-05-25T03:29:47;0.30;;;0.30;;
15841;SDS011;8021;48.022;11.812;2023-05-25T03:32:16;0.30;;;0.30;;
15841;SDS011;8021;48.022;11.812;2023-05-25T03:34:43;0.35;;;0.35;;
15841;SDS011;8021;48.022;11.812;2023-05-25T03:37:15;0.40;;;0.40;;
15841;SDS011;8021;48.022;11.812;2023-05-25T03:39:43;0.30;;;0.30;;
15841;SDS011;8021;48.022;11.812;2023-05-25T03:42:11;0.35;;;0.35;;
15841;SDS011;8021;48.022;11.812;2023-05-25T03:44:38;0.40;;;0.40;;
15841;SDS011;8021;48.022;11.812;2023-05-25T03:47:07;0.35;;;0.35;;
15841;SDS011;8021;48.022;11.812;2023-05-25T03:49:34;0.30;;;0.30;;
15841;SDS011;8021;48.022;11.812;2023-05-25T03:52:02;0.30;;;0.30;;
15841;SDS011;8021;48.022;11.812;2023-05-25T03:54:32;0.40;;;0.40;;
15841;SDS011;8021;48.022;11.812;2023-05-25T03:57:01;0.30;;;0.30;;
15841;SDS011;8021;48.022;11.812;2023-05-25T03:59:29;0.30;;;0.30;;
15841;SDS011;8021;48.022;11.812;2023-05-25T04:01:57;0.40;;;0.40;;
15841;SDS011;8021;48.022;11.812;2023-05-25T04:04:26;0.40;;;0.40;;
15841;SDS011;8021;48.022;11.812;2023-05-25T04:06:55;0.38;;;0.38;;
15841;SDS011;8021;48.022;11.812;2023-05-25T04:09:22;0.30;;;0.30;;
15841;SDS011;8021;48.022;11.812;2023-05-25T04:11:51;0.40;;;0.40;;
15841;SDS011;8021;48.022;11.812;2023-05-25T04:14:19;0.30;;;0.30;;
15841;SDS011;8021;48.022;11.812;2023-05-25T04:16:47;0.30;;;0.30;;
15841;SDS011;8021;48.022;11.812;2023-05-25T04:19:15;0.30;;;0.30;;
15841;SDS011;8021;48.022;11.812;2023-05-25T04:21:43;0.30;;;0.30;;
15841;SDS011;8021;48.022;11.812;2023-05-25T04:24:10;0.30;;;0.30;;
15841;SDS011;8021;48.022;11.812;2023-05-25T04:26:38;0.30;;;0.30;;
15841;SDS011;8021;48.022;11.812;2023-05-25T04:29:09;0.35;;;0.35;;
15841;SDS011;8021;48.022;11.812;2023-05-25T04:31:46;0.30;;;0.30;;
15841;SDS011;8021;48.022;11.812;2023-05-25T04:34:36;0.30;;;0.30;;
15841;SDS011;8021;48.022;11.812;2023-05-25T04:37:18;0.40;;;0.40;;
15841;SDS011;8021;48.022;11.812;2023-05-25T04:39:46;0.40;;;0.40;;
15841;SDS011;8021;48.022;11.812;2023-05-25T04:42:14;0.30;;;0.30;;
15841;SDS011;8021;48.022;11.812;2023-05-25T04:44:43;0.30;;;0.30;;
15841;SDS011;8021;48.022;11.812;2023-05-25T04:47:11;0.30;;;0.30;;
15841;SDS011;8021;48.022;11.812;2023-05-25T04:49:38;0.35;;;0.35;;
15841;SDS011;8021;48.022;11.812;2023-05-25T04:52:06;0.30;;;0.30;;
15841;SDS011;8021;48.022;11.812;2023-05-25T04:54:34;0.30;;;0.30;;
15841;SDS011;8021;48.022;11.812;2023-05-25T04:57:02;0.30;;;0.30;;
15841;SDS011;8021;48.022;11.812;2023-05-25T04:59:30;0.30;;;0.30;;
15841;SDS011;8021;48.022;11.812;2023-05-25T05:02:00;0.40;;;0.40;;
15841;SDS011;8021;48.022;11.812;2023-05-25T05:04:27;0.40;;;0.40;;
15841;SDS011;8021;48.022;11.812;2023-05-25T05:06:55;0.38;;;0.38;;
15841;SDS011;8021;48.022;11.812;2023-05-25T05:09:26;0.40;;;0.40;;
15841;SDS011;8021;48.022;11.812;2023-05-25T05:11:56;0.40;;;0.40;;
15841;SDS011;8021;48.022;11.812;2023-05-25T05:14:23;0.32;;;0.32;;
15841;SDS011;8021;48.022;11.812;2023-05-25T05:16:51;0.40;;;0.40;;
15841;SDS011;8021;48.022;11.812;2023-05-25T05:19:21;0.40;;;0.40;;
15841;SDS011;8021;48.022;11.812;2023-05-25T05:21:48;0.30;;;0.30;;
15841;SDS011;8021;48.022;11.812;2023-05-25T05:24:17;0.30;;;0.30;;
15841;SDS011;8021;48.022;11.812;2023-05-25T05:26:46;0.30;;;0.30;;
15841;SDS011;8021;48.022;11.812;2023-05-25T05:29:22;0.30;;;0.30;;
15841;SDS011;8021;48.022;11.812;2023-05-25T05:31:51;0.30;;;0.30;;
15841;SDS011;8021;48.022;11.812;2023-05-25T05:34:18;0.30;;;0.30;;
15841;SDS011;8021;48.022;11.812;2023-05-25T05:36:47;0.30;;;0.30;;
15841;SDS011;8021;48.022;11.812;2023-05-25T05:39:25;0.30;;;0.30;;
15841;SDS011;8021;48.022;11.812;2023-05-25T05:41:53;0.30;;;0.30;;
15841;SDS011;8021;48.022;11.812;2023-05-25T05:44:21;0.20;;;0.20;;
15841;SDS011;8021;48.022;11.812;2023-05-25T05:46:54;0.30;;;0.30;;
15841;SDS011;8021;48.022;11.812;2023-05-25T05:49:26;0.30;;;0.30;;
15841;SDS011;8021;48.022;11.812;2023-05-25T05:51:55;0.30;;;0.20;;
15841;SDS011;8021;48.022;11.812;2023-05-25T05:54:23;0.30;;;0.20;;
15841;SDS011;8021;48.022;11.812;2023-05-25T05:56:55;0.30;;;0.30;;
15841;SDS011;8021;48.022;11.812;2023-05-25T05:59:22;0.20;;;0.20;;
15841;SDS011;8021;48.022;11.812;2023-05-25T06:01:50;0.30;;;0.22;;
15841;SDS011;8021;48.022;11.812;2023-05-25T06:04:19;0.30;;;0.30;;
15841;SDS011;8021;48.022;11.812;2023-05-25T06:06:48;0.30;;;0.30;;
15841;SDS011;8021;48.022;11.812;2023-05-25T06:09:17;0.30;;;0.22;;
15841;SDS011;8021;48.022;11.812;2023-05-25T06:11:46;0.30;;;0.30;;
15841;SDS011;8021;48.022;11.812;2023-05-25T06:14:13;0.30;;;0.30;;
15841;SDS011;8021;48.022;11.812;2023-05-25T06:16:41;0.30;;;0.30;;
15841;SDS011;8021;48.022;11.812;2023-05-25T06:19:09;0.30;;;0.30;;
15841;SDS011;8021;48.022;11.812;2023-05-25T06:21:37;0.30;;;0.30;;
15841;SDS011;8021;48.022;11.812;2023-05-25T06:24:05;0.30;;;0.22;;
15841;SDS011;8021;48.022;11.812;2023-05-25T06:26:34;0.30;;;0.22;;
15841;SDS011;8021;48.022;11.812;2023-05-25T06:29:02;0.30;;;0.30;;
15841;SDS011;8021;48.022;11.812;2023-05-25T06:31:31;0.30;;;0.30;;
15841;SDS011;8021;48.022;11.812;2023-05-25T06:33:58;0.40;;;0.40;;
15841;SDS011;8021;48.022;11.812;2023-05-25T06:36:26;0.30;;;0.28;;
15841;SDS011;8021;48.022;11.812;2023-05-25T06:38:54;0.30;;;0.30;;
15841;SDS011;8021;48.022;11.812;2023-05-25T06:41:21;0.30;;;0.20;;
15841;SDS011;8021;48.022;11.812;2023-05-25T06:43:50;0.20;;;0.20;;
15841;SDS011;8021;48.022;11.812;2023-05-25T06:46:28;0.30;;;0.30;;
15841;SDS011;8021;48.022;11.812;2023-05-25T06:48:57;0.30;;;0.20;;
15841;SDS011;8021;48.022;11.812;2023-05-25T06:51:25;0.30;;;0.28;;
15841;SDS011;8021;48.022;11.812;2023-05-25T06:53:53;0.30;;;0.30;;
15841;SDS011;8021;48.022;11.812;2023-05-25T06:56:21;0.20;;;0.20;;
15841;SDS011;8021;48.022;11.812;2023-05-25T06:58:50;0.20;;;0.20;;
15841;SDS011;8021;48.022;11.812;2023-05-25T07:01:17;0.30;;;0.22;;
15841;SDS011;8021;48.022;11.812;2023-05-25T07:03:45;0.30;;;0.30;;
15841;SDS011;8021;48.022;11.812;2023-05-25T07:06:12;0.25;;;0.20;;
15841;SDS011;8021;48.022;11.812;2023-05-25T07:08:42;0.30;;;0.30;;
15841;SDS011;8021;48.022;11.812;2023-05-25T07:11:09;0.30;;;0.30;;
15841;SDS011;8021;48.022;11.812;2023-05-25T07:13:39;0.30;;;0.30;;
15841;SDS011;8021;48.022;11.812;2023-05-25T07:16:08;0.30;;;0.30;;
15841;SDS011;8021;48.022;11.812;2023-05-25T07:18:37;0.30;;;0.22;;
15841;SDS011;8021;48.022;11.812;2023-05-25T07:21:05;0.28;;;0.20;;
15841;SDS011;8021;48.022;11.812;2023-05-25T07:23:35;0.30;;;0.30;;
15841;SDS011;8021;48.022;11.812;2023-05-25T07:26:02;0.30;;;0.30;;
15841;SDS011;8021;48.022;11.812;2023-05-25T07:28:31;0.32;;;0.32;;
15841;SDS011;8021;48.022;11.812;2023-05-25T07:30:59;0.30;;;0.30;;
15841;SDS011;8021;48.022;11.812;2023-05-25T07:33:28;0.30;;;0.30;;
15841;SDS011;8021;48.022;11.812;2023-05-25T07:35:55;0.30;;;0.20;;
15841;SDS011;8021;48.022;11.812;2023-05-25T07:38:23;0.30;;;0.30;;
15841;SDS011;8021;48.022;11.812;2023-05-25T07:40:50;0.30;;;0.30;;
15841;SDS011;8021;48.022;11.812;2023-05-25T07:43:20;0.30;;;0.30;;
15841;SDS011;8021;48.022;11.812;2023-05-25T07:45:47;0.30;;;0.30;;
15841;SDS011;8021;48.022;11.812;2023-05-25T07:48:15;0.30;;;0.20;;
15841;SDS011;8021;48.022;11.812;2023-05-25T07:50:44;0.30;;;0.28;;
15841;SDS011;8021;48.022;11.812;2023-05-25T07:53:12;0.30;;;0.28;;
15841;SDS011;8021;48.022;11.812;2023-05-25T07:55:39;0.20;;;0.20;;
15841;SDS011;8021;48.022;11.812;2023-05-25T07:58:07;0.20;;;0.20;;
15841;SDS011;8021;48.022;11.812;2023-05-25T08:00:35;0.30;;;0.30;;
15841;SDS011;8021;48.022;11.812;2023-05-25T08:03:02;0.30;;;0.30;;
15841;SDS011;8021;48.022;11.812;2023-05-25T08:05:30;0.30;;;0.30;;
15841;SDS011;8021;48.022;11.812;2023-05-25T08:07:59;0.20;;;0.20;;
15841;SDS011;8021;48.022;11.812;2023-05-25T08:10:26;0.30;;;0.22;;
15841;SDS011;8021;48.022;11.812;2023-05-25T08:12:57;0.30;;;0.20;;
15841;SDS011;8021;48.022;11.812;2023-05-25T08:15:25;0.30;;;0.30;;
15841;SDS011;8021;48.022;11.812;2023-05-25T08:17:53;0.30;;;0.30;;
15841;SDS011;8021;48.022;11.812;2023-05-25T08:20:22;0.30;;;0.28;;
15841;SDS011;8021;48.022;11.812;2023-05-25T08:22:50;0.20;;;0.20;;
15841;SDS011;8021;48.022;11.812;2023-05-25T08:25:20;0.20;;;0.20;;
15841;SDS011;8021;48.022;11.812;2023-05-25T08:27:48;0.30;;;0.22;;
15841;SDS011;8021;48.022;11.812;2023-05-25T08:30:15;0.20;;;0.20;;
15841;SDS011;8021;48.022;11.812;2023-05-25T08:32:43;0.30;;;0.20;;
15841;SDS011;8021;48.022;11.812;2023-05-25T08:35:11;0.30;;;0.20;;
15841;SDS011;8021;48.022;11.812;2023-05-25T08:37:39;0.30;;;0.30;;
15841;SDS011;8021;48.022;11.812;2023-05-25T08:40:09;0.30;;;0.20;;
15841;SDS011;8021;48.022;11.812;2023-05-25T08:42:42;0.20;;;0.20;;
15841;SDS011;8021;48.022;11.812;2023-05-25T08:45:09;0.20;;;0.20;;
15841;SDS011;8021;48.022;11.812;2023-05-25T08:47:48;0.30;;;0.30;;
15841;SDS011;8021;48.022;11.812;2023-05-25T08:50:17;0.22;;;0.20;;
15841;SDS011;8021;48.022;11.812;2023-05-25T08:52:44;0.30;;;0.20;;
15841;SDS011;8021;48.022;11.812;2023-05-25T08:55:12;0.20;;;0.20;;
15841;SDS011;8021;48.022;11.812;2023-05-25T08:57:44;0.30;;;0.20;;
15841;SDS011;8021;48.022;11.812;2023-05-25T09:00:15;0.20;;;0.20;;
15841;SDS011;8021;48.022;11.812;2023-05-25T09:02:48;0.20;;;0.20;;
15841;SDS011;8021;48.022;11.812;2023-05-25T09:05:17;0.25;;;0.20;;
15841;SDS011;8021;48.022;11.812;2023-05-25T09:07:45;0.20;;;0.20;;
15841;SDS011;8021;48.022;11.812;2023-05-25T09:10:12;0.30;;;0.20;;
15841;SDS011;8021;48.022;11.812;2023-05-25T09:12:40;0.30;;;0.20;;
15841;SDS011;8021;48.022;11.812;2023-05-25T09:15:10;0.20;;;0.20;;
15841;SDS011;8021;48.022;11.812;2023-05-25T09:17:38;0.20;;;0.20;;
15841;SDS011;8021;48.022;11.812;2023-05-25T09:20:07;0.20;;;0.20;;
15841;SDS011;8021;48.022;11.812;2023-05-25T09:22:35;0.20;;;0.20;;
15841;SDS011;8021;48.022;11.812;2023-05-25T09:25:03;0.20;;;0.20;;
15841;SDS011;8021;48.022;11.812;2023-05-25T09:27:32;0.25;;;0.20;;
15841;SDS011;8021;48.022;11.812;2023-05-25T09:30:01;0.20;;;0.20;;
15841;SDS011;8021;48.022;11.812;2023-05-25T09:32:30;0.20;;;0.20;;
15841;SDS011;8021;48.022;11.812;2023-05-25T09:35:05;0.30;;;0.20;;
15841;SDS011;8021;48.022;11.812;2023-05-25T09:37:33;0.20;;;0.20;;
15841;SDS011;8021;48.022;11.812;2023-05-25T09:40:01;0.30;;;0.20;;
15841;SDS011;8021;48.022;11.812;2023-05-25T09:42:29;0.20;;;0.20;;
15841;SDS011;8021;48.022;11.812;2023-05-25T09:44:57;0.20;;;0.20;;
15841;SDS011;8021;48.022;11.812;2023-05-25T09:47:26;0.20;;;0.20;;
15841;SDS011;8021;48.022;11.812;2023-05-25T09:49:55;0.30;;;0.20;;
15841;SDS011;8021;48.022;11.812;2023-05-25T09:52:22;0.30;;;0.20;;
15841;SDS011;8021;48.022;11.812;2023-05-25T09:54:50;0.20;;;0.20;;
15841;SDS011;8021;48.022;11.812;2023-05-25T09:57:18;0.20;;;0.10;;
15841;SDS011;8021;48.022;11.812;2023-05-25T09:59:46;0.20;;;0.20;;
15841;SDS011;8021;48.022;11.812;2023-05-25T10:02:14;0.30;;;0.20;;
15841;SDS011;8021;48.022;11.812;2023-05-25T10:04:41;0.20;;;0.20;;
15841;SDS011;8021;48.022;11.812;2023-05-25T10:07:10;0.30;;;0.30;;
15841;SDS011;8021;48.022;11.812;2023-05-25T10:09:38;0.20;;;0.10;;
15841;SDS011;8021;48.022;11.812;2023-05-25T10:12:06;0.20;;;0.20;;
15841;SDS011;8021;48.022;11.812;2023-05-25T10:14:34;0.20;;;0.15;;
15841;SDS011;8021;48.022;11.812;2023-05-25T10:17:03;0.30;;;0.20;;
15841;SDS011;8021;48.022;11.812;2023-05-25T10:19:31;0.20;;;0.20;;
15841;SDS011;8021;48.022;11.812;2023-05-25T10:22:00;0.20;;;0.20;;
15841;SDS011;8021;48.022;11.812;2023-05-25T10:24:33;0.10;;;0.10;;
15841;SDS011;8021;48.022;11.812;2023-05-25T10:27:02;0.20;;;0.20;;
15841;SDS011;8021;48.022;11.812;2023-05-25T10:29:44;0.20;;;0.20;;
15841;SDS011;8021;48.022;11.812;2023-05-25T10:32:14;0.20;;;0.10;;
15841;SDS011;8021;48.022;11.812;2023-05-25T10:34:42;0.20;;;0.20;;
15841;SDS011;8021;48.022;11.812;2023-05-25T10:37:10;0.20;;;0.20;;
15841;SDS011;8021;48.022;11.812;2023-05-25T10:39:39;0.20;;;0.20;;
15841;SDS011;8021;48.022;11.812;2023-05-25T10:42:07;0.20;;;0.20;;
15841;SDS011;8021;48.022;11.812;2023-05-25T10:44:36;0.20;;;0.20;;
15841;SDS011;8021;48.022;11.812;2023-05-25T10:47:04;0.20;;;0.20;;
15841;SDS011;8021;48.022;11.812;2023-05-25T10:49:32;0.20;;;0.10;;
15841;SDS011;8021;48.022;11.812;2023-05-25T10:52:00;0.20;;;0.20;;
15841;SDS011;8021;48.022;11.812;2023-05-25T10:54:28;0.20;;;0.20;;
15841;SDS011;8021;48.022;11.812;2023-05-25T10:57:08;0.20;;;0.20;;
15841;SDS011;8021;48.022;11.812;2023-05-25T10:59:39;0.20;;;0.20;;
15841;SDS011;8021;48.022;11.812;2023-05-25T11:02:06;0.20;;;0.20;;
15841;SDS011;8021;48.022;11.812;2023-05-25T11:04:35;0.20;;;0.20;;
15841;SDS011;8021;48.022;11.812;2023-05-25T11:07:03;0.20;;;0.20;;
15841;SDS011;8021;48.022;11.812;2023-05-25T11:09:34;0.20;;;0.20;;
15841;SDS011;8021;48.022;11.812;2023-05-25T11:12:18;0.20;;;0.20;;
15841;SDS011;8021;48.022;11.812;2023-05-25T11:17:33;0.20;;;0.20;;
15841;SDS011;8021;48.022;11.812;2023-05-25T11:20:19;0.20;;;0.20;;
15841;SDS011;8021;48.022;11.812;2023-05-25T11:22:49;0.10;;;0.10;;
15841;SDS011;8021;48.022;11.812;2023-05-25T11:25:36;0.20;;;0.10;;
15841;SDS011;8021;48.022;11.812;2023-05-25T11:28:06;0.10;;;0.10;;
15841;SDS011;8021;48.022;11.812;2023-05-25T11:30:36;0.10;;;0.10;;
15841;SDS011;8021;48.022;11.812;2023-05-25T11:33:04;0.10;;;0.10;;
15841;SDS011;8021;48.022;11.812;2023-05-25T11:35:34;0.13;;;0.13;;
15841;SDS011;8021;48.022;11.812;2023-05-25T11:38:04;0.20;;;0.15;;
15841;SDS011;8021;48.022;11.812;2023-05-25T11:40:32;0.20;;;0.17;;
15841;SDS011;8021;48.022;11.812;2023-05-25T11:43:02;0.20;;;0.20;;
15841;SDS011;8021;48.022;11.812;2023-05-25T11:45:32;0.20;;;0.10;;
15841;SDS011;8021;48.022;11.812;2023-05-25T11:48:00;0.10;;;0.10;;
15841;SDS011;8021;48.022;11.812;2023-05-25T11:50:30;0.20;;;0.20;;
15841;SDS011;8021;48.022;11.812;2023-05-25T11:52:58;0.20;;;0.20;;
15841;SDS011;8021;48.022;11.812;2023-05-25T11:55:25;0.13;;;0.13;;
15841;SDS011;8021;48.022;11.812;2023-05-25T11:57:54;0.20;;;0.20;;
15841;SDS011;8021;48.022;11.812;2023-05-25T12:00:25;0.20;;;0.20;;
15841;SDS011;8021;48.022;11.812;2023-05-25T12:02:54;0.20;;;0.20;;
15841;SDS011;8021;48.022;11.812;2023-05-25T12:05:23;0.20;;;0.20;;
15841;SDS011;8021;48.022;11.812;2023-05-25T12:07:50;0.10;;;0.10;;
15841;SDS011;8021;48.022;11.812;2023-05-25T12:10:18;0.20;;;0.20;;
15841;SDS011;8021;48.022;11.812;2023-05-25T12:12:46;0.20;;;0.20;;
15841;SDS011;8021;48.022;11.812;2023-05-25T12:15:14;0.20;;;0.20;;
15841;SDS011;8021;48.022;11.812;2023-05-25T12:17:46;0.20;;;0.20;;
15841;SDS011;8021;48.022;11.812;2023-05-25T12:20:15;0.10;;;0.10;;
15841;SDS011;8021;48.022;11.812;2023-05-25T12:22:43;0.20;;;0.20;;
15841;SDS011;8021;48.022;11.812;2023-05-25T12:25:12;0.20;;;0.20;;
15841;SDS011;8021;48.022;11.812;2023-05-25T12:27:41;0.20;;;0.20;;
15841;SDS011;8021;48.022;11.812;2023-05-25T12:30:09;0.17;;;0.17;;
15841;SDS011;8021;48.022;11.812;2023-05-25T12:32:53;0.20;;;0.20;;
15841;SDS011;8021;48.022;11.812;2023-05-25T12:35:22;0.10;;;0.10;;
15841;SDS011;8021;48.022;11.812;2023-05-25T12:37:49;0.10;;;0.10;;
15841;SDS011;8021;48.022;11.812;2023-05-25T12:40:35;0.17;;;0.17;;
15841;SDS011;8021;48.022;11.812;2023-05-25T12:43:02;0.10;;;0.10;;
15841;SDS011;8021;48.022;11.812;2023-05-25T12:45:30;0.20;;;0.20;;
15841;SDS011;8021;48.022;11.812;2023-05-25T12:47:58;0.20;;;0.20;;
15841;SDS011;8021;48.022;11.812;2023-05-25T12:50:29;0.20;;;0.20;;
15841;SDS011;8021;48.022;11.812;2023-05-25T12:52:59;0.10;;;0.10;;
15841;SDS011;8021;48.022;11.812;2023-05-25T12:55:27;0.10;;;0.10;;
15841;SDS011;8021;48.022;11.812;2023-05-25T12:57:55;0.10;;;0.10;;
15841;SDS011;8021;48.022;11.812;2023-05-25T13:00:24;0.10;;;0.10;;
15841;SDS011;8021;48.022;11.812;2023-05-25T13:02:52;0.10;;;0.10;;
15841;SDS011;8021;48.022;11.812;2023-05-25T13:05:20;0.10;;;0.10;;
15841;SDS011;8021;48.022;11.812;2023-05-25T13:07:49;0.20;;;0.20;;
15841;SDS011;8021;48.022;11.812;2023-05-25T13:10:17;0.20;;;0.20;;
15841;SDS011;8021;48.022;11.812;2023-05-25T13:12:45;0.10;;;0.10;;
15841;SDS011;8021;48.022;11.812;2023-05-25T13:15:13;0.10;;;0.10;;
15841;SDS011;8021;48.022;11.812;2023-05-25T13:17:41;0.17;;;0.17;;
15841;SDS011;8021;48.022;11.812;2023-05-25T13:20:10;0.10;;;0.10;;
15841;SDS011;8021;48.022;11.812;2023-05-25T13:22:38;0.17;;;0.17;;
15841;SDS011;8021;48.022;11.812;2023-05-25T13:25:08;0.10;;;0.10;;
15841;SDS011;8021;48.022;11.812;2023-05-25T13:27:36;0.20;;;0.20;;
15841;SDS011;8021;48.022;11.812;2023-05-25T13:30:04;0.10;;;0.10;;
15841;SDS011;8021;48.022;11.812;2023-05-25T13:32:32;0.10;;;0.10;;
15841;SDS011;8021;48.022;11.812;2023-05-25T13:34:59;0.20;;;0.20;;
15841;SDS011;8021;48.022;11.812;2023-05-25T13:37:29;0.10;;;0.10;;
15841;SDS011;8021;48.022;11.812;2023-05-25T13:39:58;0.10;;;0.10;;
15841;SDS011;8021;48.022;11.812;2023-05-25T13:42:27;0.10;;;0.10;;
15841;SDS011;8021;48.022;11.812;2023-05-25T13:44:55;0.10;;;0.10;;
15841;SDS011;8021;48.022;11.812;2023-05-25T13:47:22;0.10;;;0.10;;
15841;SDS011;8021;48.022;11.812;2023-05-25T13:49:50;0.10;;;0.10;;
15841;SDS011;8021;48.022;11.812;2023-05-25T13:52:17;0.20;;;0.10;;
15841;SDS011;8021;48.022;11.812;2023-05-25T13:54:45;0.10;;;0.10;;
15841;SDS011;8021;48.022;11.812;2023-05-25T13:57:12;0.10;;;0.10;;
15841;SDS011;8021;48.022;11.812;2023-05-25T13:59:41;0.10;;;0.10;;
15841;SDS011;8021;48.022;11.812;2023-05-25T14:02:09;0.10;;;0.10;;
15841;SDS011;8021;48.022;11.812;2023-05-25T14:04:36;0.20;;;0.20;;
15841;SDS011;8021;48.022;11.812;2023-05-25T14:07:04;0.10;;;0.10;;
15841;SDS011;8021;48.022;11.812;2023-05-25T14:09:31;0.10;;;0.10;;
15841;SDS011;8021;48.022;11.812;2023-05-25T14:11:59;0.20;;;0.20;;
15841;SDS011;8021;48.022;11.812;2023-05-25T14:14:27;0.10;;;0.10;;
15841;SDS011;8021;48.022;11.812;2023-05-25T14:16:59;0.10;;;0.10;;
15841;SDS011;8021;48.022;11.812;2023-05-25T14:19:27;0.10;;;0.10;;
15841;SDS011;8021;48.022;11.812;2023-05-25T14:21:54;0.10;;;0.10;;
15841;SDS011;8021;48.022;11.812;2023-05-25T14:24:39;0.20;;;0.20;;
15841;SDS011;8021;48.022;11.812;2023-05-25T14:27:06;0.17;;;0.17;;
15841;SDS011;8021;48.022;11.812;2023-05-25T14:29:34;0.20;;;0.20;;
15841;SDS011;8021;48.022;11.812;2023-05-25T14:32:03;0.10;;;0.10;;
15841;SDS011;8021;48.022;11.812;2023-05-25T14:34:30;0.10;;;0.10;;
15841;SDS011;8021;48.022;11.812;2023-05-25T14:36:58;0.10;;;0.10;;
15841;SDS011;8021;48.022;11.812;2023-05-25T14:39:25;0.10;;;0.10;;
15841;SDS011;8021;48.022;11.812;2023-05-25T14:41:53;0.10;;;0.10;;
15841;SDS011;8021;48.022;11.812;2023-05-25T14:44:21;0.10;;;0.10;;
15841;SDS011;8021;48.022;11.812;2023-05-25T14:46:48;0.10;;;0.10;;
15841;SDS011;8021;48.022;11.812;2023-05-25T14:49:17;0.20;;;0.20;;
15841;SDS011;8021;48.022;11.812;2023-05-25T14:51:46;0.10;;;0.10;;
15841;SDS011;8021;48.022;11.812;2023-05-25T14:54:14;0.20;;;0.20;;
15841;SDS011;8021;48.022;11.812;2023-05-25T14:56:41;0.10;;;0.10;;
15841;SDS011;8021;48.022;11.812;2023-05-25T14:59:09;0.10;;;0.10;;
15841;SDS011;8021;48.022;11.812;2023-05-25T15:01:36;0.10;;;0.10;;